Time;durP1;ratioP1;P1;durP2;ratioP2;P2;SDS_P1;SDS_P2;PMS_P1;PMS_P2;Temp;Humidity;BMP_temperature;BMP_pressure;BME280_temperature;BME280_humidity;BME280_pressure;Samples;Min_cycle;Max_cycle;Signal;HPM_P1;HPM_P2
2023/06/10 06:51:14;;;;;;;7.63;3.27;;;18.10;99.90;;;;;;5109592;27;20558;-75
2023/06/10 06:53:45;;;;;;;6.90;3.50;;;18.30;99.90;;;;;;5105816;28;20545;-73
2023/06/10 06:56:11;;;;;;;4.20;2.90;;;18.40;99.90;;;;;;5106512;28;20563;-73
2023/06/10 06:58:37;;;;;;;5.20;3.27;;;18.50;99.90;;;;;;5107157;28;20433;-73
2023/06/10 07:01:04;;;;;;;6.30;3.80;;;18.70;99.90;;;;;;5116229;28;20592;-73
2023/06/10 07:03:29;;;;;;;4.70;3.10;;;18.80;99.90;;;;;;5108649;28;20225;-73
2023/06/10 07:05:55;;;;;;;5.40;2.90;;;19.00;99.90;;;;;;5127949;28;20421;-74
2023/06/10 07:08:21;;;;;;;5.10;2.77;;;19.20;99.90;;;;;;5128618;28;20205;-73
2023/06/10 07:10:46;;;;;;;5.20;2.90;;;19.40;99.60;;;;;;5121815;28;20291;-73
2023/06/10 07:13:12;;;;;;;6.73;4.00;;;19.50;99.10;;;;;;5113085;28;20643;-71
2023/06/10 07:15:38;;;;;;;5.07;3.83;;;19.70;98.70;;;;;;5108433;28;20204;-71
2023/06/10 07:18:04;;;;;;;4.40;2.77;;;20.00;98.30;;;;;;5119812;28;20209;-71
2023/06/10 07:20:30;;;;;;;5.50;2.93;;;20.20;97.70;;;;;;5127952;28;20423;-72
2023/06/10 07:22:55;;;;;;;7.20;3.47;;;20.40;98.00;;;;;;5115436;28;20644;-71
2023/06/10 07:25:21;;;;;;;7.77;3.43;;;20.80;98.60;;;;;;5108433;28;20191;-74
2023/06/10 07:27:47;;;;;;;5.00;2.93;;;21.20;97.40;;;;;;5103524;28;20216;-74
2023/06/10 07:30:13;;;;;;;4.67;3.07;;;21.70;95.70;;;;;;5110660;28;20207;-74
2023/06/10 07:32:38;;;;;;;5.63;2.73;;;22.00;94.90;;;;;;5112824;28;20176;-74
2023/06/10 07:35:08;;;;;;;4.80;2.53;;;22.20;93.90;;;;;;5125663;28;20555;-73
2023/06/10 07:37:34;;;;;;;3.83;2.70;;;22.60;93.80;;;;;;5127748;28;20202;-75
2023/06/10 07:39:59;;;;;;;3.80;2.57;;;23.40;91.90;;;;;;5127135;28;20734;-75
2023/06/10 07:42:25;;;;;;;5.50;2.97;;;24.60;88.90;;;;;;5124091;28;20266;-75
2023/06/10 07:44:50;;;;;;;4.80;2.73;;;25.00;88.60;;;;;;5124993;28;20210;-75
2023/06/10 07:47:16;;;;;;;5.25;2.72;;;25.50;88.10;;;;;;5114370;28;20194;-74
2023/06/10 07:49:42;;;;;;;14.10;3.17;;;25.40;85.10;;;;;;5119932;28;20214;-72
2023/06/10 07:52:08;;;;;;;8.50;3.25;;;26.50;84.60;;;;;;5127738;28;20642;-73
2023/06/10 07:54:33;;;;;;;4.93;1.98;;;27.50;76.30;;;;;;5127153;28;20182;-72
2023/06/10 07:56:59;;;;;;;5.60;3.05;;;27.20;76.90;;;;;;5127784;28;20183;-72
2023/06/10 07:59:26;;;;;;;4.93;2.15;;;26.90;77.90;;;;;;5127661;28;20611;-72
2023/06/10 08:01:52;;;;;;;8.90;2.60;;;27.70;75.90;;;;;;5104588;28;20180;-72
2023/06/10 08:04:18;;;;;;;3.55;2.65;;;28.00;82.20;;;;;;5113865;28;20249;-72
2023/06/10 08:06:43;;;;;;;4.10;2.40;;;27.70;73.90;;;;;;5101226;28;20612;-72
2023/06/10 08:09:09;;;;;;;3.97;2.50;;;28.10;72.80;;;;;;5113185;28;20199;-72
2023/06/10 08:11:35;;;;;;;3.30;2.30;;;28.20;72.50;;;;;;5105005;28;20844;-73
2023/06/10 08:14:01;;;;;;;4.45;2.85;;;28.10;71.40;;;;;;5099044;28;20172;-72
2023/06/10 08:16:26;;;;;;;3.95;2.28;;;28.30;70.00;;;;;;5094229;28;20255;-72
2023/06/10 08:18:52;;;;;;;4.35;2.90;;;28.20;68.90;;;;;;5112585;28;20200;-71
2023/06/10 08:21:18;;;;;;;4.05;2.90;;;27.90;70.00;;;;;;5101178;28;20172;-72
2023/06/10 08:23:44;;;;;;;4.38;2.53;;;26.70;73.80;;;;;;5108167;28;20183;-72
2023/06/10 08:26:09;;;;;;;2.90;1.90;;;26.70;73.50;;;;;;5113148;28;20202;-72
2023/06/10 08:28:35;;;;;;;2.88;1.85;;;;;;;;;;5113716;28;20262;-72
2023/06/10 08:31:01;;;;;;;3.33;2.25;;;27.10;73.60;;;;;;5113260;28;20213;-72
2023/06/10 08:33:27;;;;;;;3.55;2.20;;;27.50;71.80;;;;;;5113008;28;20183;-72
2023/06/10 08:35:52;;;;;;;4.72;2.90;;;28.30;68.90;;;;;;5113231;28;20204;-72
2023/06/10 08:38:18;;;;;;;3.10;2.10;;;28.20;70.20;;;;;;5113198;28;20595;-71
2023/06/10 08:40:43;;;;;;;4.45;3.05;;;27.70;72.00;;;;;;5111235;28;20216;-72
2023/06/10 08:43:35;;;;;;;4.95;2.78;;;27.30;71.50;;;;;;5092559;28;20648;-72
2023/06/10 08:46:02;;;;;;;4.85;2.53;;;28.10;70.30;;;;;;5085265;28;20198;-72
2023/06/10 08:48:34;;;;;;;5.93;3.10;;;28.20;70.40;;;;;;5090510;28;20740;-72
2023/06/10 08:51:00;;;;;;;5.82;3.10;;;28.50;69.50;;;;;;5109835;28;20243;-72
2023/06/10 08:53:26;;;;;;;4.15;2.28;;;27.90;70.00;;;;;;5112616;28;20210;-72
2023/06/10 08:55:52;;;;;;;3.70;2.35;;;;;;;;;;5108203;28;20612;-72
2023/06/10 08:58:19;;;;;;;4.70;2.60;;;28.40;67.30;;;;;;5103375;28;20178;-73
2023/06/10 09:00:45;;;;;;;6.90;3.25;;;28.50;67.50;;;;;;5098267;28;20191;-72
2023/06/10 09:03:11;;;;;;;8.52;2.25;;;28.60;67.10;;;;;;5091594;28;20184;-72
2023/06/10 09:05:38;;;;;;;3.25;2.10;;;28.50;67.20;;;;;;5096455;28;20218;-73
2023/06/10 09:08:06;;;;;;;4.53;2.80;;;27.70;68.40;;;;;;5090485;28;20184;-73
2023/06/10 09:10:32;;;;;;;5.00;2.47;;;27.80;69.30;;;;;;5091264;28;20189;-73
2023/06/10 09:12:58;;;;;;;6.32;2.22;;;27.80;69.90;;;;;;5087847;28;20256;-73
2023/06/10 09:15:23;;;;;;;5.82;2.58;;;28.20;69.00;;;;;;5092865;28;20176;-72
2023/06/10 09:17:51;;;;;;;7.35;2.92;;;28.40;67.50;;;;;;5091608;28;20190;-73
2023/06/10 09:20:16;;;;;;;4.07;2.70;;;28.30;67.10;;;;;;5110119;28;20181;-73
2023/06/10 09:22:43;;;;;;;6.10;2.33;;;27.90;69.30;;;;;;5089947;28;20690;-73
2023/06/10 09:25:11;;;;;;;4.57;3.05;;;27.80;69.30;;;;;;5087227;28;20579;-73
2023/06/10 09:27:53;;;;;;;6.40;2.47;;;28.20;67.60;;;;;;5091600;28;20184;-73
2023/06/10 09:30:33;;;;;;;3.53;2.38;;;27.80;68.40;;;;;;5104806;28;20212;-72
2023/06/10 09:33:11;;;;;;;6.07;2.35;;;27.40;69.40;;;;;;5093365;28;20183;-73
2023/06/10 09:35:44;;;;;;;4.05;2.53;;;27.40;69.80;;;;;;5101254;28;20214;-73
2023/06/10 09:38:10;;;;;;;10.30;2.58;;;27.50;69.50;;;;;;5110674;28;20175;-72
2023/06/10 09:40:50;;;;;;;8.73;2.60;;;27.90;68.40;;;;;;5111721;28;20187;-73
2023/06/10 09:43:16;;;;;;;4.85;2.33;;;27.90;67.30;;;;;;5098584;28;20183;-73
2023/06/10 09:45:43;;;;;;;5.43;2.40;;;27.70;68.70;;;;;;5109874;28;20636;-73
2023/06/10 09:48:09;;;;;;;3.63;2.75;;;27.80;69.10;;;;;;5091351;28;20185;-73
2023/06/10 09:50:37;;;;;;;2.58;1.70;;;28.20;67.20;;;;;;5091650;28;20203;-73
2023/06/10 09:53:06;;;;;;;6.03;2.25;;;27.90;68.00;;;;;;5110959;28;20211;-73
2023/06/10 09:55:34;;;;;;;3.85;2.35;;;28.20;66.40;;;;;;5094499;28;20502;-73
2023/06/10 09:57:59;;;;;;;4.65;2.80;;;28.20;65.90;;;;;;5103184;28;20603;-73
2023/06/10 10:00:25;;;;;;;3.97;2.05;;;28.40;66.30;;;;;;5089933;28;20180;-73
2023/06/10 10:02:53;;;;;;;2.72;1.83;;;28.10;65.90;;;;;;5087364;28;20558;-73
2023/06/10 10:05:21;;;;;;;3.08;1.92;;;28.10;65.40;;;;;;5095704;28;20176;-72
2023/06/10 10:07:47;;;;;;;6.60;1.92;;;28.10;64.10;;;;;;5096858;28;20172;-74
2023/06/10 10:10:14;;;;;;;2.92;1.98;;;28.10;65.30;;;;;;5090643;28;20204;-73
2023/06/10 10:12:41;;;;;;;3.90;2.30;;;27.30;66.80;;;;;;5096463;28;20181;-72
2023/06/10 10:15:11;;;;;;;3.45;2.25;;;27.50;67.70;;;;;;5092371;28;20171;-73
2023/06/10 10:17:52;;;;;;;3.22;2.00;;;27.40;68.50;;;;;;5100555;28;20657;-73
2023/06/10 10:20:21;;;;;;;4.82;1.83;;;27.40;69.00;;;;;;5105959;28;20179;-73
2023/06/10 10:22:49;;;;;;;4.85;2.03;;;27.10;65.70;;;;;;5085774;28;20176;-73
2023/06/10 10:25:21;;;;;;;2.55;1.65;;;27.30;66.40;;;;;;5094010;28;20179;-72
2023/06/10 10:28:09;;;;;;;3.83;1.73;;;27.30;65.90;;;;;;5101856;28;20179;-71
2023/06/10 10:30:45;;;;;;;3.45;2.08;;;27.10;67.30;;;;;;5086901;28;20203;-71
2023/06/10 10:33:18;;;;;;;3.58;2.38;;;26.90;68.00;;;;;;5095236;28;20190;-74
2023/06/10 10:35:45;;;;;;;4.20;2.00;;;26.70;71.30;;;;;;5111363;28;20170;-74
2023/06/10 10:38:11;;;;;;;2.97;1.73;;;26.80;68.80;;;;;;5089030;28;20172;-74
2023/06/10 10:40:38;;;;;;;4.70;2.30;;;26.70;68.60;;;;;;5098121;28;20278;-74
2023/06/10 10:43:05;;;;;;;5.57;2.10;;;26.60;69.20;;;;;;5090239;28;20191;-75
2023/06/10 10:45:33;;;;;;;3.13;1.80;;;26.50;70.50;;;;;;5088107;28;20172;-74
2023/06/10 10:48:11;;;;;;;3.90;2.00;;;26.50;71.10;;;;;;5091533;28;20634;-75
2023/06/10 10:50:37;;;;;;;3.07;1.90;;;26.60;70.10;;;;;;5083488;28;20627;-76
2023/06/10 10:53:04;;;;;;;3.13;2.13;;;27.00;67.60;;;;;;5094978;28;20203;-75
2023/06/10 10:55:31;;;;;;;4.07;1.93;;;26.70;68.20;;;;;;5088168;28;20206;-76
2023/06/10 10:58:06;;;;;;;7.73;2.97;;;26.50;70.00;;;;;;5098161;28;20217;-75
2023/06/10 11:00:33;;;;;;;3.77;2.00;;;26.50;69.80;;;;;;5109353;28;20261;-74
2023/06/10 11:03:05;;;;;;;4.63;2.87;;;26.90;69.90;;;;;;5099056;28;20262;-75
2023/06/10 11:05:36;;;;;;;3.43;2.10;;;27.10;68.60;;;;;;5094498;28;20203;-75
2023/06/10 11:08:01;;;;;;;3.83;2.47;;;27.40;66.60;;;;;;5090986;28;20207;-76
2023/06/10 11:10:32;;;;;;;3.97;2.13;;;26.90;68.70;;;;;;5080392;28;20254;-76
2023/06/10 11:12:58;;;;;;;4.70;2.50;;;26.80;67.80;;;;;;5084102;28;20176;-75
2023/06/10 11:15:24;;;;;;;4.00;2.37;;;26.70;70.20;;;;;;5091544;28;20515;-74
2023/06/10 11:18:13;;;;;;;4.00;2.70;;;26.60;70.40;;;;;;5090743;28;20666;-73
2023/06/10 11:20:48;;;;;;;2.73;1.83;;;26.20;70.50;;;;;;5085936;28;20179;-73
2023/06/10 11:23:33;;;;;;;3.00;2.00;;;26.00;70.60;;;;;;5105346;28;20451;-74
2023/06/10 11:26:31;;;;;;;3.17;2.00;;;26.50;72.30;;;;;;5089032;28;20518;-75
2023/06/10 11:28:56;;;;;;;6.10;2.73;;;26.70;69.80;;;;;;5100282;28;20171;-75
2023/06/10 11:31:29;;;;;;;3.93;2.03;;;27.00;67.90;;;;;;5110667;28;20185;-75
2023/06/10 11:33:57;;;;;;;5.30;2.20;;;27.30;69.70;;;;;;5097547;28;20695;-76
2023/06/10 11:36:25;;;;;;;3.40;2.30;;;27.60;66.80;;;;;;5096732;28;20180;-73
2023/06/10 11:39:05;;;;;;;5.07;2.80;;;27.50;67.00;;;;;;5096066;28;20233;-75
2023/06/10 11:41:31;;;;;;;3.10;2.10;;;27.10;67.10;;;;;;5092246;28;20524;-76
2023/06/10 11:44:03;;;;;;;3.73;1.97;;;27.50;66.40;;;;;;5096920;28;20180;-76
2023/06/10 11:46:28;;;;;;;3.90;2.53;;;27.80;68.10;;;;;;5085083;28;20176;-75
2023/06/10 11:48:55;;;;;;;3.97;2.03;;;27.80;65.40;;;;;;5092077;28;20217;-76
2023/06/10 11:51:21;;;;;;;3.60;2.33;;;27.90;63.80;;;;;;5097101;28;20308;-77
2023/06/10 11:53:50;;;;;;;3.67;2.10;;;27.80;64.00;;;;;;5107333;28;20183;-76
2023/06/10 11:56:23;;;;;;;5.17;2.43;;;27.60;64.30;;;;;;5106875;28;20176;-76
2023/06/10 11:58:54;;;;;;;3.22;1.80;;;27.30;65.70;;;;;;5095510;28;20180;-76
2023/06/10 12:01:22;;;;;;;3.83;2.10;;;27.40;64.30;;;;;;5114299;28;20226;-75
2023/06/10 12:03:47;;;;;;;8.27;2.47;;;27.40;63.90;;;;;;5111628;28;20255;-77
2023/06/10 12:06:13;;;;;;;5.63;2.70;;;27.30;64.80;;;;;;5103068;28;20779;-76
2023/06/10 12:08:43;;;;;;;3.90;1.70;;;27.30;65.70;;;;;;5113897;28;20186;-75
2023/06/10 12:11:09;;;;;;;3.23;2.13;;;27.10;64.80;;;;;;5103915;28;20257;-75
2023/06/10 12:13:35;;;;;;;3.63;2.27;;;27.50;66.20;;;;;;5099095;28;20184;-75
2023/06/10 12:16:08;;;;;;;4.00;2.00;;;27.50;65.90;;;;;;5094952;28;20178;-75
2023/06/10 12:18:34;;;;;;;4.20;2.58;;;27.70;64.90;;;;;;5104931;28;20195;-75
2023/06/10 12:21:00;;;;;;;3.22;1.70;;;27.50;64.20;;;;;;5104254;28;20191;-76
2023/06/10 12:23:25;;;;;;;7.90;1.77;;;27.80;64.80;;;;;;5106772;28;20194;-75
2023/06/10 12:25:55;;;;;;;5.07;2.20;;;27.40;63.70;;;;;;5093070;28;20179;-75
2023/06/10 12:28:26;;;;;;;5.68;2.05;;;27.60;64.80;;;;;;5107118;28;20184;-77
2023/06/10 12:31:05;;;;;;;2.87;1.80;;;27.70;61.60;;;;;;5093276;28;20671;-75
2023/06/10 12:33:31;;;;;;;3.20;1.83;;;27.70;63.40;;;;;;5100187;28;20205;-75
2023/06/10 12:35:56;;;;;;;3.13;2.00;;;27.70;61.80;;;;;;5114063;28;20218;-75
2023/06/10 12:38:30;;;;;;;2.80;1.83;;;27.90;61.20;;;;;;5113986;28;20285;-76
2023/06/10 12:41:03;;;;;;;3.00;1.73;;;28.00;62.10;;;;;;5111739;28;20188;-75
2023/06/10 12:43:31;;;;;;;3.20;2.20;;;27.80;62.90;;;;;;5087034;28;20263;-76
2023/06/10 12:46:08;;;;;;;3.25;1.70;;;28.30;60.70;;;;;;5091970;28;20172;-75
2023/06/10 12:48:34;;;;;;;4.83;2.40;;;27.40;60.90;;;;;;5090377;28;20179;-76
2023/06/10 12:51:01;;;;;;;2.73;1.80;;;27.30;60.70;;;;;;5098650;28;20542;-75
2023/06/10 12:53:26;;;;;;;2.90;1.30;;;27.70;62.80;;;;;;5092124;28;20191;-76
2023/06/10 12:55:52;;;;;;;4.05;2.13;;;27.70;62.30;;;;;;5092647;28;20171;-75
2023/06/10 12:58:21;;;;;;;3.42;1.83;;;27.60;60.60;;;;;;5105957;28;20512;-75
2023/06/10 13:00:48;;;;;;;3.13;1.80;;;27.70;62.50;;;;;;5114627;28;20183;-76
2023/06/10 13:03:14;;;;;;;3.50;1.55;;;27.70;64.00;;;;;;5112754;28;20677;-76
2023/06/10 13:05:40;;;;;;;2.47;1.70;;;27.90;62.30;;;;;;5099415;28;20179;-76
2023/06/10 13:08:07;;;;;;;3.07;2.00;;;27.90;62.60;;;;;;5101279;28;20563;-78
2023/06/10 13:10:33;;;;;;;3.03;1.70;;;27.80;61.80;;;;;;5095945;28;20195;-73
2023/06/10 13:13:01;;;;;;;6.55;2.20;;;27.60;62.10;;;;;;5101243;28;20258;-78
2023/06/10 13:15:26;;;;;;;3.60;2.00;;;27.70;62.30;;;;;;5087125;28;20187;-78
2023/06/10 13:17:52;;;;;;;3.57;2.00;;;27.80;62.20;;;;;;5093313;28;20176;-80
2023/06/10 13:20:19;;;;;;;4.53;2.85;;;28.00;62.80;;;;;;5110887;28;20627;-79
2023/06/10 13:22:45;;;;;;;4.68;3.08;;;27.90;62.80;;;;;;5113008;28;20175;-79
2023/06/10 13:25:10;;;;;;;4.50;1.83;;;28.10;61.80;;;;;;5112404;28;20194;-79
2023/06/10 13:27:39;;;;;;;4.07;1.98;;;27.90;62.00;;;;;;5112892;28;20195;-76
2023/06/10 13:30:07;;;;;;;4.75;2.78;;;27.80;61.60;;;;;;5096453;28;20211;-75
2023/06/10 13:32:33;;;;;;;3.17;2.22;;;28.20;60.50;;;;;;5092400;28;20168;-76
2023/06/10 13:34:58;;;;;;;3.42;2.17;;;27.90;60.90;;;;;;5092299;28;20191;-76
2023/06/10 13:37:24;;;;;;;3.42;1.80;;;28.20;60.90;;;;;;5088629;28;20633;-78
2023/06/10 13:39:50;;;;;;;3.15;1.65;;;28.50;60.10;;;;;;5085369;28;20208;-78
2023/06/10 13:42:20;;;;;;;4.35;2.53;;;28.40;60.70;;;;;;5071462;28;20176;-79
2023/06/10 13:44:49;;;;;;;3.55;2.55;;;28.20;61.40;;;;;;5087659;28;20179;-79
2023/06/10 13:47:15;;;;;;;3.08;1.88;;;28.20;61.70;;;;;;5079169;28;20181;-79
2023/06/10 13:49:41;;;;;;;4.57;2.22;;;27.80;60.10;;;;;;5091419;28;20208;-78
2023/06/10 13:52:07;;;;;;;2.30;1.60;;;27.30;59.30;;;;;;5078625;28;20194;-78
2023/06/10 13:54:32;;;;;;;3.47;2.23;;;27.20;60.00;;;;;;5091554;28;20191;-78
2023/06/10 13:57:00;;;;;;;4.10;2.33;;;27.40;62.30;;;;;;5091902;28;20180;-78
2023/06/10 13:59:25;;;;;;;3.57;2.47;;;27.40;64.30;;;;;;5064576;28;20628;-78
2023/06/10 14:01:51;;;;;;;5.03;2.43;;;27.70;62.30;;;;;;5091576;28;20194;-78
2023/06/10 14:04:17;;;;;;;4.65;2.25;;;28.10;60.10;;;;;;5091708;28;20194;-79
2023/06/10 14:06:42;;;;;;;6.28;2.15;;;28.10;60.40;;;;;;5091832;28;20187;-79
2023/06/10 14:09:09;;;;;;;5.32;2.58;;;28.20;62.20;;;;;;5090801;28;20184;-78
2023/06/10 14:11:34;;;;;;;6.10;2.35;;;28.10;61.60;;;;;;5078358;28;20230;-78
2023/06/10 14:14:00;;;;;;;3.17;2.10;;;28.00;63.10;;;;;;5076138;28;20175;-79
2023/06/10 14:16:26;;;;;;;3.35;1.63;;;27.80;61.70;;;;;;5071639;28;20175;-79
2023/06/10 14:18:51;;;;;;;3.83;2.65;;;27.50;62.20;;;;;;5090995;28;20262;-79
2023/06/10 14:21:17;;;;;;;3.47;2.58;;;27.30;62.70;;;;;;5079314;28;20188;-79
2023/06/10 14:23:43;;;;;;;3.60;2.03;;;27.00;62.60;;;;;;5081539;28;20212;-78
2023/06/10 14:26:09;;;;;;;8.23;2.90;;;26.60;63.40;;;;;;5083455;28;20172;-79
2023/06/10 14:28:35;;;;;;;3.37;2.20;;;26.60;62.60;;;;;;5085488;28;20511;-78
2023/06/10 14:31:01;;;;;;;3.03;1.90;;;26.30;64.80;;;;;;5071167;28;20196;-79
2023/06/10 14:33:27;;;;;;;3.77;1.97;;;26.20;64.10;;;;;;5090107;28;20265;-79
2023/06/10 14:35:52;;;;;;;9.57;2.10;;;26.20;65.10;;;;;;5091241;28;20180;-79
2023/06/10 14:38:18;;;;;;;3.33;2.10;;;26.30;64.60;;;;;;5091589;28;20188;-78
2023/06/10 14:40:44;;;;;;;4.20;1.80;;;26.50;65.40;;;;;;5090997;28;20171;-78
2023/06/10 14:43:09;;;;;;;4.70;2.03;;;26.70;65.80;;;;;;5077003;28;20180;-78
2023/06/10 14:45:39;;;;;;;6.90;2.37;;;26.90;66.10;;;;;;5089079;28;20222;-74
2023/06/10 14:48:06;;;;;;;5.87;3.23;;;27.20;63.40;;;;;;5077166;28;20177;-75
2023/06/10 14:50:32;;;;;;;4.73;2.23;;;27.40;62.70;;;;;;5084468;28;20219;-74
2023/06/10 14:52:58;;;;;;;3.60;2.40;;;27.50;62.10;;;;;;5091134;28;20180;-74
2023/06/10 14:55:24;;;;;;;6.70;2.03;;;27.40;63.00;;;;;;5090876;28;20203;-74
2023/06/10 14:57:49;;;;;;;6.13;2.30;;;27.60;61.50;;;;;;5077697;28;20628;-76
2023/06/10 15:00:19;;;;;;;9.53;2.80;;;27.50;62.40;;;;;;5091460;28;20217;-75
2023/06/10 15:02:47;;;;;;;9.47;2.83;;;27.10;62.60;;;;;;5091195;28;20180;-75
2023/06/10 15:05:15;;;;;;;7.00;2.70;;;26.90;62.60;;;;;;5091369;28;20643;-74
2023/06/10 15:07:40;;;;;;;4.37;2.70;;;26.90;62.00;;;;;;5084435;28;20184;-74
2023/06/10 15:10:06;;;;;;;3.50;2.30;;;26.50;64.60;;;;;;5084565;28;20596;-77
2023/06/10 15:12:32;;;;;;;5.07;2.50;;;26.50;63.50;;;;;;5088539;28;20267;-75
2023/06/10 15:14:58;;;;;;;3.20;2.30;;;26.60;64.20;;;;;;5079420;28;20592;-75
2023/06/10 15:17:23;;;;;;;3.20;1.80;;;26.60;64.30;;;;;;5081864;28;20209;-75
2023/06/10 15:19:49;;;;;;;4.20;2.23;;;26.60;64.30;;;;;;5073972;28;20185;-74
2023/06/10 15:22:14;;;;;;;2.93;2.00;;;26.60;64.70;;;;;;5085294;28;20195;-74
2023/06/10 15:24:40;;;;;;;3.57;2.53;;;27.00;63.20;;;;;;5084762;28;20179;-74
2023/06/10 15:27:06;;;;;;;4.10;2.57;;;27.10;63.20;;;;;;5091761;28;20820;-75
2023/06/10 15:29:32;;;;;;;4.50;2.23;;;27.40;62.20;;;;;;5078274;28;20259;-75
2023/06/10 15:31:57;;;;;;;5.37;1.97;;;27.60;61.90;;;;;;5078208;28;20211;-75
2023/06/10 15:34:23;;;;;;;3.10;1.73;;;27.50;63.60;;;;;;5091991;28;20183;-75
2023/06/10 15:36:49;;;;;;;10.33;2.80;;;27.50;63.10;;;;;;5092123;28;20275;-75
2023/06/10 15:39:15;;;;;;;2.83;1.80;;;27.30;62.60;;;;;;5091556;28;20313;-75
2023/06/10 15:41:40;;;;;;;3.27;1.80;;;26.90;64.40;;;;;;5087625;28;20504;-75
2023/06/10 15:44:06;;;;;;;2.67;2.00;;;26.70;65.20;;;;;;5071935;28;20286;-75
2023/06/10 15:46:34;;;;;;;3.93;2.50;;;26.30;66.40;;;;;;5085835;28;20546;-76
2023/06/10 15:48:59;;;;;;;3.47;2.23;;;26.20;67.20;;;;;;5074100;28;20177;-75
2023/06/10 15:51:25;;;;;;;4.60;2.10;;;25.90;68.50;;;;;;5086636;28;20231;-75
2023/06/10 15:53:51;;;;;;;4.63;2.60;;;25.80;68.40;;;;;;5088178;28;20661;-75
2023/06/10 15:56:16;;;;;;;4.60;3.03;;;25.80;67.70;;;;;;5094664;28;20183;-75
2023/06/10 15:58:42;;;;;;;5.83;2.27;;;25.80;68.20;;;;;;5094554;28;20184;-75
2023/06/10 16:01:09;;;;;;;4.70;1.80;;;25.90;68.20;;;;;;5094665;28;20192;-75
2023/06/10 16:03:35;;;;;;;4.00;2.47;;;26.10;67.60;;;;;;5094158;28;20184;-74
2023/06/10 16:06:01;;;;;;;4.07;2.43;;;26.30;68.00;;;;;;5094603;28;20417;-75
2023/06/10 16:08:26;;;;;;;4.07;2.17;;;26.50;65.80;;;;;;5094091;28;20422;-75
2023/06/10 16:10:52;;;;;;;5.20;2.97;;;26.50;65.10;;;;;;5073743;28;20204;-74
2023/06/10 16:13:18;;;;;;;2.77;1.77;;;26.50;66.10;;;;;;5079692;28;20188;-74
2023/06/10 16:15:43;;;;;;;3.43;2.10;;;26.70;64.50;;;;;;5079688;28;20177;-75
2023/06/10 16:18:09;;;;;;;3.90;2.53;;;26.60;65.70;;;;;;5074119;28;20204;-75
2023/06/10 16:20:35;;;;;;;3.00;1.83;;;26.50;66.40;;;;;;5094366;28;20199;-75
2023/06/10 16:23:04;;;;;;;4.67;2.30;;;26.50;64.40;;;;;;5090476;28;20259;-75
2023/06/10 16:25:30;;;;;;;4.93;2.40;;;26.50;64.40;;;;;;5092926;28;20404;-75
2023/06/10 16:27:56;;;;;;;4.93;2.40;;;26.40;64.40;;;;;;5080250;28;20694;-75
2023/06/10 16:30:22;;;;;;;4.10;2.63;;;26.40;64.30;;;;;;5093927;28;20208;-75
2023/06/10 16:32:48;;;;;;;3.77;3.00;;;26.30;65.50;;;;;;5085658;28;20184;-74
2023/06/10 16:35:13;;;;;;;3.57;2.50;;;26.40;66.00;;;;;;5081795;28;20180;-74
2023/06/10 16:37:39;;;;;;;7.53;3.60;;;26.40;66.10;;;;;;5094251;28;20179;-75
2023/06/10 16:40:06;;;;;;;4.50;2.63;;;26.40;67.20;;;;;;5085421;28;20188;-75
2023/06/10 16:42:32;;;;;;;4.10;2.50;;;26.50;67.50;;;;;;5074332;28;20187;-76
2023/06/10 16:44:57;;;;;;;4.50;3.10;;;26.50;67.20;;;;;;5079606;28;20186;-76
2023/06/10 16:47:23;;;;;;;3.90;2.47;;;26.40;68.00;;;;;;5067161;28;20708;-75
2023/06/10 16:49:49;;;;;;;4.60;1.87;;;26.20;66.60;;;;;;5086391;28;20207;-75
2023/06/10 16:52:15;;;;;;;4.20;2.23;;;25.90;68.00;;;;;;5087055;28;20175;-75
2023/06/10 16:54:40;;;;;;;4.10;2.30;;;25.80;66.60;;;;;;5093006;28;20187;-75
2023/06/10 16:57:07;;;;;;;6.93;2.80;;;25.80;66.80;;;;;;5081103;28;20173;-72
2023/06/10 16:59:32;;;;;;;5.40;2.83;;;25.80;67.20;;;;;;5087250;28;20176;-73
2023/06/10 17:01:58;;;;;;;6.03;2.13;;;25.70;68.00;;;;;;5087177;28;20928;-71
2023/06/10 17:04:23;;;;;;;4.57;2.40;;;25.80;66.90;;;;;;5094136;28;20183;-75
2023/06/10 17:06:49;;;;;;;3.10;1.93;;;25.60;67.50;;;;;;5093869;28;20495;-75
2023/06/10 17:09:16;;;;;;;3.50;2.10;;;25.70;67.00;;;;;;5066803;28;20189;-74
2023/06/10 17:11:42;;;;;;;4.10;2.00;;;25.70;66.20;;;;;;5070340;28;20175;-74
2023/06/10 17:14:07;;;;;;;3.20;1.50;;;25.70;65.30;;;;;;5093051;28;20463;-74
2023/06/10 17:16:33;;;;;;;8.27;1.63;;;25.80;64.80;;;;;;5081092;28;20176;-74
2023/06/10 17:18:59;;;;;;;3.57;2.07;;;25.70;66.30;;;;;;5080576;28;20172;-74
2023/06/10 17:21:24;;;;;;;4.27;2.37;;;25.50;66.10;;;;;;5080461;28;20547;-75
2023/06/10 17:23:51;;;;;;;3.10;1.97;;;25.60;67.30;;;;;;5093297;28;20222;-74
2023/06/10 17:26:16;;;;;;;3.60;1.73;;;25.60;66.40;;;;;;5080504;28;20176;-74
2023/06/10 17:28:42;;;;;;;3.77;2.30;;;25.60;66.80;;;;;;5093231;28;20969;-74
2023/06/10 17:31:08;;;;;;;3.50;2.27;;;25.70;67.20;;;;;;5080120;28;20223;-75
2023/06/10 17:33:33;;;;;;;4.63;2.47;;;25.60;67.50;;;;;;5086129;28;20219;-74
2023/06/10 17:35:59;;;;;;;8.10;2.30;;;25.70;67.20;;;;;;5086750;28;20512;-74
2023/06/10 17:38:24;;;;;;;4.30;2.27;;;25.70;67.40;;;;;;5093591;28;20183;-74
2023/06/10 17:40:50;;;;;;;3.73;1.83;;;25.50;68.70;;;;;;5092223;28;20225;-74
2023/06/10 17:43:15;;;;;;;2.80;1.80;;;25.40;69.50;;;;;;5072510;28;20646;-74
2023/06/10 17:45:41;;;;;;;2.40;1.73;;;25.40;66.40;;;;;;5059658;28;20197;-74
2023/06/10 17:48:07;;;;;;;4.23;2.10;;;25.30;67.00;;;;;;5072797;28;20184;-74
2023/06/10 17:50:32;;;;;;;5.97;2.33;;;25.30;67.60;;;;;;5085849;28;20211;-74
2023/06/10 17:52:58;;;;;;;3.90;2.17;;;25.20;67.60;;;;;;5092680;28;20188;-74
2023/06/10 17:55:23;;;;;;;3.80;2.27;;;24.90;68.50;;;;;;5086075;28;20177;-74
2023/06/10 17:57:49;;;;;;;4.00;2.30;;;24.70;69.70;;;;;;5082930;28;20256;-74
2023/06/10 18:00:15;;;;;;;2.80;1.87;;;24.50;71.00;;;;;;5080813;28;20193;-75
2023/06/10 18:02:41;;;;;;;4.13;1.90;;;24.40;71.00;;;;;;5077091;28;20173;-75
2023/06/10 18:05:07;;;;;;;3.77;1.97;;;24.30;71.20;;;;;;5072461;28;20794;-75
2023/06/10 18:07:32;;;;;;;4.73;1.80;;;24.20;70.60;;;;;;5074783;28;20268;-74
2023/06/10 18:09:58;;;;;;;4.17;2.40;;;24.20;70.40;;;;;;5092269;28;20249;-74
2023/06/10 18:12:24;;;;;;;3.70;2.13;;;24.30;71.70;;;;;;5068310;28;20219;-74
2023/06/10 18:14:50;;;;;;;3.37;2.00;;;24.20;71.50;;;;;;5073521;28;20180;-73
2023/06/10 18:17:15;;;;;;;4.40;2.43;;;24.10;71.70;;;;;;5079026;28;20218;-74
2023/06/10 18:19:41;;;;;;;4.00;2.80;;;24.00;71.80;;;;;;5080201;28;20521;-74
2023/06/10 18:22:07;;;;;;;3.13;1.93;;;24.00;72.30;;;;;;5090639;28;20207;-74
2023/06/10 18:24:32;;;;;;;3.03;1.80;;;24.00;72.60;;;;;;5086980;28;20556;-74
2023/06/10 18:26:58;;;;;;;3.90;2.07;;;23.90;72.90;;;;;;5086689;28;20188;-74
2023/06/10 18:29:24;;;;;;;3.97;2.17;;;23.80;73.50;;;;;;5060452;28;20280;-73
2023/06/10 18:31:49;;;;;;;4.70;2.43;;;23.70;74.10;;;;;;5080514;28;20175;-74
2023/06/10 18:34:15;;;;;;;5.13;1.83;;;23.60;74.30;;;;;;5053488;28;20679;-74
2023/06/10 18:36:41;;;;;;;4.17;2.27;;;23.60;74.30;;;;;;5086922;28;20228;-74
2023/06/10 18:39:07;;;;;;;4.13;2.87;;;23.60;74.50;;;;;;5080557;28;20184;-74
2023/06/10 18:41:33;;;;;;;3.73;1.90;;;23.50;74.60;;;;;;5061143;28;20427;-74
2023/06/10 18:43:59;;;;;;;3.13;1.70;;;23.40;74.80;;;;;;5071193;28;20180;-74
2023/06/10 18:46:25;;;;;;;2.73;1.73;;;23.30;75.40;;;;;;5072688;28;20517;-74
2023/06/10 18:48:51;;;;;;;4.90;2.70;;;23.20;75.90;;;;;;5061271;28;20442;-74
2023/06/10 18:51:16;;;;;;;6.60;2.70;;;23.10;76.00;;;;;;5067545;28;20204;-75
2023/06/10 18:53:42;;;;;;;7.77;3.00;;;23.00;76.30;;;;;;5071248;28;20181;-74
2023/06/10 18:56:08;;;;;;;5.67;2.30;;;22.90;76.90;;;;;;5086195;28;20177;-74
2023/06/10 18:58:35;;;;;;;3.73;2.60;;;22.90;77.50;;;;;;5072564;28;20630;-74
2023/06/10 19:01:02;;;;;;;4.50;2.50;;;22.80;77.50;;;;;;5078264;28;20469;-73
2023/06/10 19:03:28;;;;;;;3.00;2.00;;;22.80;78.10;;;;;;5091084;28;20457;-77
2023/06/10 19:05:54;;;;;;;4.00;2.03;;;22.70;77.80;;;;;;5065492;28;20419;-77
2023/06/10 19:08:20;;;;;;;5.00;2.17;;;22.60;78.10;;;;;;5070142;28;20525;-78
2023/06/10 19:10:46;;;;;;;5.63;1.87;;;22.60;78.30;;;;;;5063766;28;20557;-77
2023/06/10 19:13:12;;;;;;;9.23;2.30;;;22.60;78.30;;;;;;5074011;28;20180;-77
2023/06/10 19:15:37;;;;;;;5.77;2.43;;;22.50;78.80;;;;;;5075520;28;20652;-77
2023/06/10 19:18:03;;;;;;;5.87;2.20;;;22.40;78.80;;;;;;5060011;28;20180;-77
2023/06/10 19:20:29;;;;;;;6.10;2.27;;;22.40;78.80;;;;;;5079719;28;20213;-77
2023/06/10 19:22:55;;;;;;;5.43;2.37;;;22.30;79.30;;;;;;5076049;28;20616;-77
2023/06/10 19:25:21;;;;;;;5.50;2.23;;;22.30;79.30;;;;;;5067186;28;20180;-77
2023/06/10 19:27:46;;;;;;;5.33;1.80;;;22.10;79.70;;;;;;5074832;28;20426;-77
2023/06/10 19:30:12;;;;;;;4.60;2.63;;;22.00;80.70;;;;;;5081019;28;20557;-77
2023/06/10 19:32:38;;;;;;;4.80;2.50;;;21.90;80.60;;;;;;5069410;28;20197;-78
2023/06/10 19:35:04;;;;;;;2.10;1.37;;;21.80;80.60;;;;;;5074101;28;20440;-76
2023/06/10 19:37:30;;;;;;;3.33;2.37;;;21.80;81.20;;;;;;5085229;28;20184;-76